Time;durP1;ratioP1;P1;durP2;ratioP2;P2;SDS_P1;SDS_P2;PMS_P1;PMS_P2;Temp;Humidity;BMP_temperature;BMP_pressure;BME280_temperature;BME280_humidity;BME280_pressure;Samples;Min_cycle;Max_cycle;Signal;HPM_P1;HPM_P2
2022/11/04 00:01:54;;;;;;;5.63;3.70;;;;;;;;;;4944451;28;20363;-85
2022/11/04 00:04:23;;;;;;;4.40;3.53;;;;;;;;;;4960273;28;20225;-84
2022/11/04 00:06:49;;;;;;;4.00;3.70;;;;;;;;;;4964172;28;20231;-84
2022/11/04 00:09:19;;;;;;;5.83;3.80;;;;;;;;;;4963953;28;20236;-86
2022/11/04 00:14:34;;;;;;;5.87;3.77;;;;;;;;;;4970115;28;20221;-85
2022/11/04 00:33:24;;;;;;;5.67;3.80;;;;;;;;;;4977598;28;20240;-85
2022/11/04 00:33:45;;;;;;;4.50;4.10;;;;;;;;;;4963747;28;20284;-86
2022/11/04 00:36:11;;;;;;;4.80;3.73;;;;;;;;;;4959927;28;20264;-87
2022/11/04 00:38:36;;;;;;;6.83;3.97;;;;;;;;;;4965583;28;20217;-85
2022/11/04 00:41:24;;;;;;;4.23;3.60;;;;;;;;;;4966251;28;20225;-85
2022/11/04 00:43:53;;;;;;;5.83;3.73;;;;;;;;;;4966148;28;20227;-85
2022/11/04 00:46:19;;;;;;;4.40;3.60;;;;;;;;;;4983670;28;20229;-85
2022/11/04 00:48:44;;;;;;;8.73;3.70;;;;;;;;;;4975156;28;20236;-85
2022/11/04 00:51:14;;;;;;;5.43;3.57;;;;;;;;;;4970233;28;20241;-84
2022/11/04 00:53:40;;;;;;;4.30;3.90;;;;;;;;;;4986017;28;20599;-85
2022/11/04 00:56:08;;;;;;;3.83;3.17;;;;;;;;;;4985667;28;20221;-86
2022/11/04 00:58:33;;;;;;;4.50;3.67;;;;;;;;;;4989731;28;20221;-85
2022/11/04 01:00:59;;;;;;;4.17;3.30;;;;;;;;;;4979122;28;20225;-83
2022/11/04 01:03:24;;;;;;;4.93;3.70;;;;;;;;;;4991161;28;20237;-83
2022/11/04 01:05:54;;;;;;;3.57;3.13;;;;;;;;;;4973845;28;20225;-87
2022/11/04 01:08:20;;;;;;;6.93;3.43;;;;;;;;;;4969236;28;20225;-86
2022/11/04 01:10:48;;;;;;;3.37;2.97;;;;;;;;;;4981123;28;20220;-86
2022/11/04 01:13:13;;;;;;;3.87;3.20;;;;;;;;;;4961971;28;20690;-86
2022/11/04 01:15:39;;;;;;;5.97;3.33;;;;;;;;;;4974530;28;20231;-85
2022/11/04 01:18:04;;;;;;;8.30;3.50;;;;;;;;;;4981069;28;20604;-86
2022/11/04 01:20:32;;;;;;;4.07;3.67;;;;;;;;;;4966611;28;20503;-86
2022/11/04 01:22:58;;;;;;;5.30;3.77;;;;;;;;;;4968346;28;20279;-86
2022/11/04 01:25:23;;;;;;;4.27;3.37;;;;;;;;;;4965308;28;20712;-82
2022/11/04 01:27:51;;;;;;;6.43;3.53;;;;;;;;;;4964031;28;20229;-86
2022/11/04 01:30:17;;;;;;;5.50;3.07;;;;;;;;;;4964771;28;20262;-86
2022/11/04 01:32:42;;;;;;;4.17;3.37;;;;;;;;;;4962465;28;20594;-86
2022/11/04 01:35:10;;;;;;;6.03;3.73;;;;;;;;;;4973509;28;20221;-84
2022/11/04 01:37:38;;;;;;;4.23;3.40;;;;;;;;;;4978185;28;20562;-87
2022/11/04 01:40:04;;;;;;;5.67;3.07;;;;;;;;;;4966634;28;20315;-84
2022/11/04 01:42:31;;;;;;;4.10;3.20;;;;;;;;;;4967195;28;20220;-86
2022/11/04 01:44:59;;;;;;;4.40;3.07;;;;;;;;;;4980019;28;20217;-85
2022/11/04 01:47:28;;;;;;;3.80;3.17;;;;;;;;;;4971414;28;20223;-85
2022/11/04 01:50:18;;;;;;;3.50;3.20;;;;;;;;;;4989300;28;20348;-87
2022/11/04 01:52:53;;;;;;;3.23;2.93;;;;;;;;;;4985318;28;20217;-85
2022/11/04 01:55:26;;;;;;;3.20;2.90;;;;;;;;;;5002887;28;20251;-86
2022/11/04 01:57:53;;;;;;;4.20;3.70;;;;;;;;;;4968228;28;20225;-85
2022/11/04 02:00:18;;;;;;;8.50;3.80;;;;;;;;;;4956892;28;20266;-84
2022/11/04 02:02:59;;;;;;;5.90;3.30;;;;;;;;;;4959849;28;20713;-85
2022/11/04 02:05:24;;;;;;;7.03;3.90;;;;;;;;;;4964369;28;20224;-84
2022/11/04 02:07:54;;;;;;;4.13;3.40;;;;;;;;;;4967403;28;20217;-88
2022/11/04 02:10:23;;;;;;;3.90;3.60;;;;;;;;;;4955924;28;20229;-86
2022/11/04 02:12:49;;;;;;;3.97;3.57;;;;;;;;;;4949557;28;20232;-85
2022/11/04 02:15:41;;;;;;;6.17;4.00;;;;;;;;;;4951390;28;20229;-86
2022/11/04 02:18:19;;;;;;;6.80;4.10;;;;;;;;;;4973174;28;20221;-85
2022/11/04 02:21:10;;;;;;;4.17;3.70;;;;;;;;;;4974134;28;20251;-85
2022/11/04 02:23:56;;;;;;;4.50;3.90;;;;;;;;;;5000968;28;20245;-83
2022/11/04 02:26:36;;;;;;;3.87;3.57;;;;;;;;;;4982661;28;20233;-87
2022/11/04 02:29:21;;;;;;;4.40;4.00;;;;;;;;;;5010277;28;20726;-85
2022/11/04 02:32:08;;;;;;;4.93;4.17;;;;;;;;;;5004373;28;20233;-88
2022/11/04 02:34:49;;;;;;;5.70;4.80;;;;;;;;;;4978966;28;20229;-86
2022/11/04 02:37:23;;;;;;;5.03;4.27;;;;;;;;;;4987417;28;20312;-85
2022/11/04 02:39:53;;;;;;;5.47;4.57;;;;;;;;;;5007529;28;20332;-85
2022/11/04 02:42:28;;;;;;;5.37;4.40;;;;;;;;;;4973564;28;20213;-85
2022/11/04 02:45:23;;;;;;;5.27;4.77;;;;;;;;;;4972155;28;20227;-82
2022/11/04 02:47:54;;;;;;;5.33;4.70;;;;;;;;;;5002327;28;20229;-85
2022/11/04 02:50:24;;;;;;;4.93;4.53;;;;;;;;;;4976721;28;20221;-87
2022/11/04 02:52:55;;;;;;;5.87;5.27;;;;;;;;;;4988015;28;20229;-84
2022/11/04 02:55:25;;;;;;;5.97;5.10;;;;;;;;;;4978666;28;20237;-84
2022/11/04 02:57:54;;;;;;;6.70;5.27;;;;;;;;;;4993689;28;20251;-86
2022/11/04 03:00:20;;;;;;;5.07;4.57;;;;;;;;;;4974324;28;20224;-85
2022/11/04 03:02:54;;;;;;;6.50;5.30;;;;;;;;;;4969906;28;20225;-84
2022/11/04 03:05:26;;;;;;;5.27;4.77;;;;;;;;;;4985704;28;20252;-86
2022/11/04 03:07:53;;;;;;;6.27;5.40;;;;;;;;;;4975990;28;20308;-85
2022/11/04 03:10:24;;;;;;;6.93;4.83;;;;;;;;;;4975556;28;20217;-85
2022/11/04 03:13:09;;;;;;;5.83;5.33;;;;;;;;;;4966253;28;20284;-86
2022/11/04 03:15:36;;;;;;;6.23;5.73;;;;;;;;;;4960276;28;20213;-86
2022/11/04 03:18:14;;;;;;;6.90;5.77;;;;;;;;;;4982219;28;20221;-85
2022/11/04 03:20:40;;;;;;;6.00;5.50;;;;;;;;;;4965415;28;20235;-84
2022/11/04 03:23:05;;;;;;;5.53;5.00;;;;;;;;;;4962503;28;20310;-85
2022/11/04 03:25:40;;;;;;;6.30;5.40;;;;;;;;;;4962852;28;20225;-85
2022/11/04 03:28:24;;;;;;;5.43;4.93;;;;;;;;;;4951928;28;20733;-84
2022/11/04 03:30:54;;;;;;;5.77;5.27;;;;;;;;;;4992299;28;20721;-87
2022/11/04 03:33:33;;;;;;;5.70;4.90;;;;;;;;;;4952114;28;20271;-86
2022/11/04 03:36:02;;;;;;;5.50;5.00;;;;;;;;;;4962856;28;20248;-86
2022/11/04 03:38:28;;;;;;;5.47;4.97;;;;;;;;;;4970509;28;20667;-83
2022/11/04 03:40:53;;;;;;;5.20;4.80;;;;;;;;;;4959858;28;20221;-84
2022/11/04 03:43:26;;;;;;;7.23;4.80;;;;;;;;;;4968594;28;20579;-84
2022/11/04 03:45:51;;;;;;;5.93;5.40;;;;;;;;;;4953393;28;20217;-84
2022/11/04 03:48:17;;;;;;;5.40;4.87;;;;;;;;;;4958589;28;20240;-83
2022/11/04 03:50:44;;;;;;;6.00;5.50;;;;;;;;;;4947612;28;20229;-83
2022/11/04 03:53:12;;;;;;;5.83;5.30;;;;;;;;;;4937790;28;20241;-83
2022/11/04 03:56:10;;;;;;;5.50;5.00;;;;;;;;;;4956434;28;20236;-83
2022/11/04 03:58:57;;;;;;;5.07;4.67;;;;;;;;;;4966263;28;20230;-83
2022/11/04 04:01:29;;;;;;;5.23;4.67;;;;;;;;;;5009139;28;20233;-85
2022/11/04 04:04:01;;;;;;;5.20;4.50;;;;;;;;;;4991206;28;20312;-83
2022/11/04 04:06:28;;;;;;;5.90;4.70;;;;;;;;;;4977464;28;20300;-84
2022/11/04 04:09:02;;;;;;;4.40;4.10;;;;;;;;;;4969072;28;20244;-84
2022/11/04 04:11:51;;;;;;;4.70;4.30;;;;;;;;;;4966322;28;20220;-83
2022/11/04 04:14:40;;;;;;;4.73;4.33;;;;;;;;;;4986190;28;20232;-85
2022/11/04 04:17:09;;;;;;;4.30;4.00;;;;;;;;;;4954323;28;20279;-86
2022/11/04 04:19:35;;;;;;;4.70;4.10;;;;;;;;;;4979848;28;20225;-84
2022/11/04 04:22:03;;;;;;;4.07;3.67;;;;;;;;;;4965456;28;20699;-85
2022/11/04 04:27:34;;;;;;;3.97;3.63;;;;;;;;;;4991018;28;20226;-88
2022/11/04 04:30:10;;;;;;;3.77;3.47;;;;;;;;;;4988496;28;20225;-84
2022/11/04 04:32:38;;;;;;;5.60;3.23;;;;;;;;;;4981269;28;20213;-88
2022/11/04 04:37:54;;;;;;;3.10;2.80;;;;;;;;;;4971627;28;20225;-83
2022/11/04 04:45:57;;;;;;;2.77;2.57;;;;;;;;;;4973140;28;20308;-81
2022/11/04 04:48:26;;;;;;;2.73;2.53;;;;;;;;;;4969296;28;20333;-83
2022/11/04 04:50:54;;;;;;;2.60;2.50;;;;;;;;;;4960183;28;20224;-86
2022/11/04 04:53:22;;;;;;;2.70;2.50;;;;;;;;;;4975125;28;20234;-84
2022/11/04 04:55:47;;;;;;;5.20;2.70;;;;;;;;;;4968816;28;20299;-84
2022/11/04 04:58:13;;;;;;;2.60;2.40;;;;;;;;;;4953587;28;20232;-85
2022/11/04 05:00:38;;;;;;;2.10;2.00;;;;;;;;;;4968827;28;21014;-84
2022/11/04 05:03:06;;;;;;;2.07;1.93;;;;;;;;;;4962856;28;20238;-84
2022/11/04 05:05:32;;;;;;;2.67;2.43;;;;;;;;;;4964219;28;20352;-85
2022/11/04 05:08:05;;;;;;;2.53;2.33;;;;;;;;;;4975827;28;20728;-84
2022/11/04 05:10:30;;;;;;;2.30;2.20;;;;;;;;;;4972442;28;20231;-83
2022/11/04 05:15:43;;;;;;;3.30;3.03;;;;;;;;;;4981131;28;20651;-85
2022/11/04 05:18:11;;;;;;;2.57;2.33;;;;;;;;;;4966208;28;20228;-85
2022/11/04 05:20:39;;;;;;;2.47;2.33;;;;;;;;;;4980429;28;20309;-83
2022/11/04 05:23:05;;;;;;;2.97;2.77;;;;;;;;;;4962870;28;20233;-84
2022/11/04 05:25:35;;;;;;;2.80;2.60;;;;;;;;;;4972283;28;20249;-85
2022/11/04 05:28:01;;;;;;;2.90;2.70;;;;;;;;;;4978755;28;20225;-84
2022/11/04 05:30:28;;;;;;;2.63;2.43;;;;;;;;;;4966676;28;20224;-85
2022/11/04 05:32:56;;;;;;;3.20;2.30;;;;;;;;;;4973771;28;20724;-85
2022/11/04 05:35:24;;;;;;;3.13;2.80;;;;;;;;;;4975496;28;20229;-82
2022/11/04 05:37:49;;;;;;;3.13;2.87;;;;;;;;;;4976670;28;20240;-85
2022/11/04 05:40:18;;;;;;;2.67;2.50;;;;;;;;;;4961861;28;20212;-86
2022/11/04 05:42:46;;;;;;;3.43;3.13;;;;;;;;;;4974859;28;20224;-84
2022/11/04 05:45:11;;;;;;;3.20;3.00;;;;;;;;;;4965477;28;20673;-85
2022/11/04 05:47:37;;;;;;;2.77;2.57;;;;;;;;;;4976195;28;20249;-86
2022/11/04 05:50:05;;;;;;;3.17;2.97;;;;;;;;;;4980922;28;20316;-84
2022/11/04 05:52:33;;;;;;;2.87;2.67;;;;;;;;;;4982299;28;20224;-84
2022/11/04 05:54:58;;;;;;;3.20;2.90;;;;;;;;;;4965431;28;20271;-84
2022/11/04 05:57:24;;;;;;;4.43;2.97;;;;;;;;;;4969993;28;20215;-87
2022/11/04 05:59:54;;;;;;;2.93;2.73;;;;;;;;;;4964129;28;20678;-84
2022/11/04 06:02:19;;;;;;;3.00;2.80;;;;;;;;;;4981801;28;20236;-83
2022/11/04 06:04:47;;;;;;;3.83;3.10;;;;;;;;;;4964264;28;20221;-85
2022/11/04 06:07:18;;;;;;;3.13;2.93;;;;;;;;;;4963073;28;20704;-87
2022/11/04 06:09:46;;;;;;;3.30;3.00;;;;;;;;;;4967602;28;20228;-84
2022/11/04 06:12:15;;;;;;;2.93;2.73;;;;;;;;;;4963736;28;20225;-84
2022/11/04 06:14:41;;;;;;;3.17;2.97;;;;;;;;;;4984106;28;20816;-86
2022/11/04 06:17:17;;;;;;;3.27;2.97;;;;;;;;;;4995444;28;20252;-85
2022/11/04 06:19:45;;;;;;;3.93;3.63;;;;;;;;;;4972321;28;20594;-88
2022/11/04 06:22:11;;;;;;;3.50;3.20;;;;;;;;;;4979871;28;20301;-83
2022/11/04 06:24:39;;;;;;;3.43;3.20;;;;;;;;;;4973634;28;20328;-82
2022/11/04 06:27:07;;;;;;;3.17;2.97;;;;;;;;;;4965209;28;20252;-84
2022/11/04 06:29:38;;;;;;;3.63;3.33;;;;;;;;;;4957852;28;20256;-84
2022/11/04 06:32:17;;;;;;;3.80;3.50;;;;;;;;;;4962721;28;20216;-83
2022/11/04 06:35:34;;;;;;;5.53;4.40;;;;;;;;;;4961977;28;20666;-85
2022/11/04 06:38:00;;;;;;;3.50;3.20;;;;;;;;;;5001429;28;20217;-80
2022/11/04 06:40:27;;;;;;;3.30;3.10;;;;;;;;;;4985085;28;20215;-82
2022/11/04 06:42:53;;;;;;;2.93;2.73;;;;;;;;;;4961812;28;20232;-83
2022/11/04 06:45:21;;;;;;;3.40;3.20;;;;;;;;;;4966604;28;20593;-86
2022/11/04 06:47:47;;;;;;;4.47;3.17;;;;;;;;;;4962792;28;20236;-82
2022/11/04 06:50:14;;;;;;;3.57;3.27;;;;;;;;;;4951627;28;20217;-78
2022/11/04 06:52:40;;;;;;;3.90;3.60;;;;;;;;;;4985553;28;20236;-78
2022/11/04 06:55:06;;;;;;;3.47;3.27;;;;;;;;;;4981223;28;20312;-80
2022/11/04 06:58:19;;;;;;;3.40;3.20;;;;;;;;;;5000831;28;20304;-79
2022/11/04 07:00:57;;;;;;;3.20;3.00;;;;;;;;;;5012461;28;20272;-79
2022/11/04 07:03:24;;;;;;;3.17;2.97;;;;;;;;;;4991570;28;20229;-81
2022/11/04 07:05:50;;;;;;;3.40;3.10;;;;;;;;;;4980007;28;20228;-77
2022/11/04 07:08:28;;;;;;;3.10;2.90;;;;;;;;;;4978551;28;20224;-81
2022/11/04 07:10:54;;;;;;;4.27;3.90;;;;;;;;;;4973558;28;20739;-79
2022/11/04 07:13:19;;;;;;;3.80;3.50;;;;;;;;;;4957312;28;20233;-81
2022/11/04 07:16:16;;;;;;;5.23;3.00;;;;;;;;;;4960659;28;20239;-80
2022/11/04 07:18:44;;;;;;;3.73;3.43;;;;;;;;;;4998420;28;20221;-80
2022/11/04 07:21:11;;;;;;;3.37;3.13;;;;;;;;;;4964796;28;20239;-80
2022/11/04 07:23:39;;;;;;;3.27;3.07;;;;;;;;;;4978122;28;20314;-80
2022/11/04 07:26:09;;;;;;;3.37;3.07;;;;;;;;;;4983867;28;20228;-79
2022/11/04 07:28:34;;;;;;;3.93;3.57;;;;;;;;;;4973574;28;20255;-79
2022/11/04 07:31:06;;;;;;;3.77;3.57;;;;;;;;;;4966886;28;20241;-82
2022/11/04 07:33:32;;;;;;;4.60;4.20;;;;;;;;;;4967225;28;20233;-81
2022/11/04 07:36:04;;;;;;;4.20;3.90;;;;;;;;;;4948275;28;20312;-80
2022/11/04 07:38:51;;;;;;;4.10;3.80;;;;;;;;;;4954309;28;20228;-80
2022/11/04 07:41:16;;;;;;;3.20;3.00;;;;;;;;;;4974694;28;20280;-80
2022/11/04 07:43:42;;;;;;;4.30;3.70;;;;;;;;;;5018428;23;20231;-74
2022/11/04 07:46:11;;;;;;;3.73;3.43;;;;;;;;;;5013900;28;20431;-72
2022/11/04 07:48:42;;;;;;;3.20;3.00;;;;;;;;;;4997909;28;20582;-72
2022/11/04 07:51:11;;;;;;;3.10;2.80;;;;;;;;;;4999955;28;20237;-73
2022/11/04 07:53:39;;;;;;;2.90;2.70;;;;;;;;;;4995803;28;20245;-73
2022/11/04 07:56:07;;;;;;;3.23;2.93;;;;;;;;;;5010317;28;20240;-73
2022/11/04 07:58:35;;;;;;;4.37;3.10;;;;;;;;;;4979429;28;20239;-73
2022/11/04 08:01:05;;;;;;;3.27;3.07;;;;;;;;;;4993300;28;20248;-73
2022/11/04 08:03:35;;;;;;;3.30;3.00;;;;;;;;;;4967640;28;20728;-74
2022/11/04 08:06:02;;;;;;;3.60;3.30;;;;;;;;;;4976598;28;20229;-73
2022/11/04 08:08:30;;;;;;;3.20;3.00;;;;;;;;;;4966232;28;21096;-73
2022/11/04 08:11:11;;;;;;;4.70;3.00;;;;;;;;;;4980403;28;20224;-74
2022/11/04 08:13:39;;;;;;;3.47;3.27;;;;;;;;;;4980934;28;20232;-74
2022/11/04 08:16:12;;;;;;;3.27;3.07;;;;;;;;;;4979689;28;20224;-74
2022/11/04 08:18:40;;;;;;;4.30;3.90;;;;;;;;;;4974780;28;20707;-76
2022/11/04 08:21:08;;;;;;;3.70;3.40;;;;;;;;;;4977192;28;20675;-74
2022/11/04 08:23:34;;;;;;;4.10;3.80;;;;;;;;;;4981333;28;20221;-76
2022/11/04 08:26:00;;;;;;;4.53;4.17;;;;;;;;;;4965412;28;20596;-76
2022/11/04 08:28:28;;;;;;;6.87;6.27;;;;;;;;;;4980525;28;20646;-76
2022/11/04 08:31:01;;;;;;;10.87;8.73;;;;;;;;;;4978317;28;20712;-76
2022/11/04 08:33:32;;;;;;;7.53;6.83;;;;;;;;;;4982562;28;20687;-75
2022/11/04 08:35:59;;;;;;;11.33;9.83;;;;;;;;;;4969027;28;20216;-74
2022/11/04 08:38:25;;;;;;;7.13;6.53;;;;;;;;;;4976759;28;20220;-73
2022/11/04 08:40:52;;;;;;;6.43;5.97;;;;;;;;;;4972533;28;20718;-75
2022/11/04 08:43:20;;;;;;;5.90;5.50;;;;;;;;;;4999596;28;20221;-74
2022/11/04 08:45:46;;;;;;;5.50;5.03;;;;;;;;;;4967574;28;20252;-78
2022/11/04 08:48:12;;;;;;;4.93;4.40;;;;;;;;;;4963810;28;20266;-75
2022/11/04 08:50:38;;;;;;;6.03;5.53;;;;;;;;;;4979821;28;20311;-77
2022/11/04 08:53:03;;;;;;;5.90;5.40;;;;;;;;;;4978082;28;20803;-76
2022/11/04 08:55:32;;;;;;;6.67;5.87;;;;;;;;;;4973469;28;20219;-76
2022/11/04 08:57:58;;;;;;;5.57;5.17;;;;;;;;;;4970711;28;20232;-77
2022/11/04 09:00:26;;;;;;;8.20;7.60;;;;;;;;;;4985842;28;20220;-76
2022/11/04 09:02:54;;;;;;;5.63;5.13;;;;;;;;;;4972407;28;20235;-77
2022/11/04 09:05:24;;;;;;;6.43;5.93;;;;;;;;;;4966891;28;20714;-77
2022/11/04 09:07:49;;;;;;;5.23;4.73;;;;;;;;;;5017645;28;20367;-76
2022/11/04 09:10:17;;;;;;;5.53;4.77;;;;;;;;;;4965924;28;20886;-76
2022/11/04 09:12:48;;;;;;;5.03;4.63;;;;;;;;;;4969251;28;20237;-78
2022/11/04 09:15:13;;;;;;;5.50;5.10;;;;;;;;;;4984722;28;20793;-78
2022/11/04 09:17:43;;;;;;;5.60;5.10;;;;;;;;;;4971675;28;20231;-78
2022/11/04 09:20:11;;;;;;;5.50;5.10;;;;;;;;;;4999388;28;20224;-78
2022/11/04 09:22:36;;;;;;;6.30;5.70;;;;;;;;;;4965759;28;20275;-76
2022/11/04 09:25:06;;;;;;;6.10;5.60;;;;;;;;;;4998318;28;20220;-76
2022/11/04 09:27:34;;;;;;;6.87;6.17;;;;;;;;;;4978218;28;20843;-77
2022/11/04 09:29:59;;;;;;;5.23;4.83;;;;;;;;;;4986963;28;20229;-75
2022/11/04 09:32:25;;;;;;;5.63;5.23;;;;;;;;;;4965267;28;20231;-75
2022/11/04 09:34:52;;;;;;;5.77;5.30;;;;;;;;;;4961933;28;20238;-75
2022/11/04 09:37:18;;;;;;;6.53;5.97;;;;;;;;;;4984866;28;20682;-75
2022/11/04 09:39:46;;;;;;;6.33;5.83;;;;;;;;;;4982710;28;20235;-75
2022/11/04 09:42:24;;;;;;;6.10;5.60;;;;;;;;;;4978559;28;20224;-75
2022/11/04 09:44:54;;;;;;;7.73;6.17;;;;;;;;;;4988842;28;20231;-78
2022/11/04 09:47:21;;;;;;;5.80;5.23;;;;;;;;;;5016736;28;20303;-75
2022/11/04 09:49:50;;;;;;;6.10;5.60;;;;;;;;;;4984269;28;20231;-75
2022/11/04 09:52:33;;;;;;;5.77;5.27;;;;;;;;;;4986247;28;20219;-76
2022/11/04 09:55:11;;;;;;;5.27;4.87;;;;;;;;;;4981614;28;20764;-75
2022/11/04 09:57:38;;;;;;;4.97;4.57;;;;;;;;;;4983655;28;20217;-75
2022/11/04 10:00:09;;;;;;;5.03;4.67;;;;;;;;;;4970100;28;20278;-75
2022/11/04 10:02:52;;;;;;;5.00;4.60;;;;;;;;;;4977656;28;20593;-76
2022/11/04 10:05:23;;;;;;;4.77;4.37;;;;;;;;;;5001111;28;20227;-75
2022/11/04 10:08:03;;;;;;;5.07;4.67;;;;;;;;;;5015548;28;20220;-74
2022/11/04 10:10:47;;;;;;;4.30;4.00;;;;;;;;;;4986313;28;20279;-73
2022/11/04 10:13:25;;;;;;;4.97;4.50;;;;;;;;;;4968567;28;20229;-74
2022/11/04 10:16:09;;;;;;;5.03;4.60;;;;;;;;;;4984191;28;20220;-75
2022/11/04 10:18:57;;;;;;;4.70;4.30;;;;;;;;;;4996233;28;20224;-74
2022/11/04 10:21:32;;;;;;;4.43;4.03;;;;;;;;;;4989709;28;21014;-73
2022/11/04 10:24:26;;;;;;;4.27;3.97;;;;;;;;;;5000254;28;20318;-73
2022/11/04 10:27:08;;;;;;;4.67;4.27;;;;;;;;;;5015039;28;20349;-73
2022/11/04 10:29:41;;;;;;;4.37;4.03;;;;;;;;;;4979808;28;20233;-75
2022/11/04 10:32:36;;;;;;;4.30;3.97;;;;;;;;;;4986231;28;20656;-75
2022/11/04 10:35:27;;;;;;;4.07;3.77;;;;;;;;;;4961194;28;20230;-75
2022/11/04 10:37:53;;;;;;;4.47;4.13;;;;;;;;;;4952524;28;20574;-74
2022/11/04 10:40:46;;;;;;;3.90;3.60;;;;;;;;;;5001317;23;20327;-85
2022/11/04 10:43:41;;;;;;;4.10;3.80;;;;;;;;;;5032150;28;20227;-82
2022/11/04 10:46:19;;;;;;;4.93;3.30;;;;;;;;;;5012487;28;20220;-83
2022/11/04 10:48:50;;;;;;;4.10;3.77;;;;;;;;;;5039929;28;20229;-86
2022/11/04 10:51:23;;;;;;;4.40;4.00;;;;;;;;;;5033291;28;20382;-86
2022/11/04 10:54:01;;;;;;;3.93;3.63;;;;;;;;;;5015862;28;20247;-79
2022/11/04 10:56:41;;;;;;;3.93;3.63;;;;;;;;;;5011857;28;20230;-84
2022/11/04 10:59:30;;;;;;;7.03;4.37;;;;;;;;;;5010811;28;20224;-84
2022/11/04 11:02:00;;;;;;;4.13;3.80;;;;;;;;;;5023248;28;20745;-86
2022/11/04 11:04:36;;;;;;;4.27;3.90;;;;;;;;;;5010365;28;20235;-85
2022/11/04 11:07:08;;;;;;;4.20;3.90;;;;;;;;;;5020096;28;20227;-87
2022/11/04 11:09:36;;;;;;;4.33;3.97;;;;;;;;;;5001358;28;20593;-87
2022/11/04 11:12:03;;;;;;;5.17;3.73;;;;;;;;;;5001260;28;20223;-85
2022/11/04 11:14:31;;;;;;;4.13;3.80;;;;;;;;;;5011627;28;20233;-84
2022/11/04 11:17:32;;;;;;;3.80;3.50;;;;;;;;;;5043823;28;20204;-83
2022/11/04 11:20:06;;;;;;;4.27;3.90;;;;;;;;;;4992278;28;20277;-84
2022/11/04 11:22:40;;;;;;;4.20;3.67;;;;;;;;;;5024550;28;20234;-83
2022/11/04 11:25:24;;;;;;;5.00;3.67;;;;;;;;;;5022325;28;20603;-86
2022/11/04 11:27:50;;;;;;;4.50;3.60;;;;;;;;;;5037877;28;20298;-84
2022/11/04 11:30:30;;;;;;;3.57;3.27;;;;;;;;;;5001510;28;20238;-84
2022/11/04 11:33:02;;;;;;;3.60;3.30;;;;;;;;;;5029790;28;20262;-83
2022/11/04 11:35:41;;;;;;;3.53;3.27;;;;;;;;;;5014841;28;20231;-82
2022/11/04 11:38:56;;;;;;;4.03;3.73;;;;;;;;;;5011068;28;20247;-85
2022/11/04 11:41:27;;;;;;;3.90;3.60;;;;;;;;;;5036727;28;20243;-84
2022/11/04 11:43:54;;;;;;;3.80;3.50;;;;;;;;;;5022139;28;20572;-85
2022/11/04 11:46:27;;;;;;;3.37;3.17;;;;;;;;;;5008598;28;20210;-83
2022/11/04 11:49:02;;;;;;;3.60;3.30;;;;;;;;;;5002772;28;20233;-83
2022/11/04 11:51:33;;;;;;;3.90;3.33;;;;;;;;;;4992397;28;20220;-85
2022/11/04 11:54:22;;;;;;;3.40;3.20;;;;;;;;;;4980593;28;20233;-84
2022/11/04 11:57:22;;;;;;;2.43;2.30;;;;;;;;;;5000935;28;20221;-83
2022/11/04 11:59:50;;;;;;;3.10;2.70;;;;;;;;;;5025639;28;20228;-85
2022/11/04 12:02:24;;;;;;;2.83;2.63;;;;;;;;;;4998685;28;20216;-83
2022/11/04 12:04:50;;;;;;;2.80;2.60;;;;;;;;;;5036429;28;20290;-86
2022/11/04 12:07:47;;;;;;;2.73;2.53;;;;;;;;;;4997103;28;20224;-83
2022/11/04 12:10:41;;;;;;;3.10;2.67;;;;;;;;;;5032773;28;20231;-84
2022/11/04 12:13:26;;;;;;;2.80;2.60;;;;;;;;;;5050948;22;20228;-74
2022/11/04 12:16:33;;;;;;;2.63;2.43;;;;;;;;;;5017547;28;20593;-75
2022/11/04 12:19:13;;;;;;;3.37;2.90;;;;;;;;;;5013535;28;20223;-75
2022/11/04 12:21:53;;;;;;;3.53;2.77;;;;;;;;;;5015036;28;20247;-76
2022/11/04 12:24:27;;;;;;;3.40;3.10;;;;;;;;;;5021612;28;20281;-73
2022/11/04 12:27:04;;;;;;;4.07;3.70;;;;;;;;;;5012262;28;20224;-75
2022/11/04 12:29:39;;;;;;;6.13;3.93;;;;;;;;;;5029711;28;20581;-76
2022/11/04 12:32:19;;;;;;;4.73;4.27;;;;;;;;;;5011789;28;20339;-75
2022/11/04 12:37:42;;;;;;;4.13;3.80;;;;;;;;;;5006109;28;20234;-85
2022/11/04 12:40:28;;;;;;;3.85;3.60;;;;;;;;;;5003260;28;20240;-84
2022/11/04 12:43:06;;;;;;;4.00;3.70;;;;;;;;;;4988803;28;20274;-83
2022/11/04 12:45:59;;;;;;;4.07;3.67;;;;;;;;;;5003044;28;20699;-85
2022/11/04 12:48:39;;;;;;;3.97;3.70;;;;;;;;;;4999739;28;20314;-87
2022/11/04 12:51:26;;;;;;;4.22;3.83;;;;;;;;;;5000846;28;20221;-85
2022/11/04 12:54:07;;;;;;;3.92;3.53;;;;;;;;;;5178716;22;20231;-85
2022/11/04 12:56:39;;;;;;;4.05;3.42;;;;;;;;;;5028512;28;20697;-86
2022/11/04 12:59:15;;;;;;;3.67;3.40;;;;;;;;;;5027798;28;20220;-81
2022/11/04 13:01:45;;;;;;;4.07;3.67;;;;;;;;;;5021848;28;20235;-84
2022/11/04 13:04:16;;;;;;;4.30;4.00;;;;;;;;;;5034020;28;20231;-86
2022/11/04 13:06:50;;;;;;;4.00;3.60;;;;;;;;;;5032974;28;20272;-85
2022/11/04 13:09:35;;;;;;;4.03;3.72;;;;;;;;;;5039748;28;20220;-85
2022/11/04 13:12:17;;;;;;;4.10;3.80;;;;;;;;;;5050629;28;20308;-81
2022/11/04 13:14:47;;;;;;;4.00;3.53;;;;;;;;;;5028643;28;20228;-84
2022/11/04 13:17:14;;;;;;;3.80;3.50;;;;;;;;;;5040683;28;20271;-87
2022/11/04 13:19:53;;;;;;;4.20;3.80;;;;;;;;;;5034453;28;20243;-83
2022/11/04 13:22:30;;;;;;;3.70;3.20;;;;;;;;;;5038741;28;20231;-85
2022/11/04 13:25:38;;;;;;;3.00;2.80;;;;;;;;;;5043626;28;20199;-86
2022/11/04 13:28:06;;;;;;;3.33;3.03;;;;;;;;;;5032205;28;20243;-85
2022/11/04 13:30:34;;;;;;;3.30;3.00;;;;;;;;;;5027615;28;20227;-86
2022/11/04 13:33:15;;;;;;;3.60;3.20;;;;;;;;;;5053727;28;20239;-84
2022/11/04 13:36:08;;;;;;;3.33;3.03;;;;;;;;;;5052663;28;20247;-84
2022/11/04 13:38:35;;;;;;;2.97;2.77;;;;;;;;;;5052917;28;20281;-85
2022/11/04 13:41:22;;;;;;;3.07;2.77;;;;;;;;;;5035964;28;20227;-86
2022/11/04 13:43:51;;;;;;;3.58;3.25;;;;;;;;;;5070535;28;20234;-88
2022/11/04 13:46:22;;;;;;;3.67;2.93;;;;;;;;;;5019528;28;20267;-87
2022/11/04 13:49:09;;;;;;;3.27;3.00;;;;;;;;;;5060423;28;20242;-85
2022/11/04 13:51:39;;;;;;;3.73;3.43;;;;;;;;;;5065539;28;20226;-83
2022/11/04 13:54:12;;;;;;;3.50;3.20;;;;;;;;;;5032735;28;20227;-85
2022/11/04 13:56:39;;;;;;;3.97;3.67;;;;;;;;;;5017721;28;20219;-85
2022/11/04 13:59:05;;;;;;;4.03;3.47;;;;;;;;;;5030592;28;20220;-84
2022/11/04 14:01:36;;;;;;;3.70;3.40;;;;;;;;;;5054264;28;20226;-86
2022/11/04 14:04:05;;;;;;;3.80;3.50;;;;;;;;;;5033465;28;20231;-83
2022/11/04 14:06:56;;;;;;;3.83;3.53;;;;;;;;;;5032514;28;20215;-81
2022/11/04 14:09:30;;;;;;;3.83;3.53;;;;;;;;;;5024411;28;20230;-85
2022/11/04 14:14:51;;;;;;;4.90;3.40;;;;;;;;;;4969837;28;20241;-77
2022/11/04 14:17:32;;;;;;;3.73;3.30;;;;;;;;;;4973616;28;20218;-77
2022/11/04 14:19:58;;;;;;;4.83;3.53;;;;;;;;;;5034861;22;20232;-86
2022/11/04 14:22:30;;;;;;;3.53;3.30;;;;;;;;;;5004562;28;20216;-85
2022/11/04 14:25:01;;;;;;;3.70;3.40;;;;;;;;;;5008554;28;20311;-82
2022/11/04 14:27:34;;;;;;;3.67;3.37;;;;;;;;;;4991447;28;20220;-81
2022/11/04 14:30:00;;;;;;;4.00;3.60;;;;;;;;;;4991220;28;20300;-84
2022/11/04 14:32:35;;;;;;;3.90;3.57;;;;;;;;;;4989304;28;20216;-84
2022/11/04 14:35:03;;;;;;;4.13;3.73;;;;;;;;;;4988777;28;20276;-84
2022/11/04 14:37:37;;;;;;;3.87;3.57;;;;;;;;;;4982369;28;20221;-83
2022/11/04 14:40:06;;;;;;;4.50;3.93;;;;;;;;;;5003340;28;20231;-83
2022/11/04 14:42:51;;;;;;;4.47;3.77;;;;;;;;;;4996363;28;20218;-84
2022/11/04 14:45:21;;;;;;;5.50;3.60;;;;;;;;;;4988210;28;20228;-85
2022/11/04 14:47:55;;;;;;;5.07;4.10;;;;;;;;;;4978000;28;20283;-85
2022/11/04 14:50:25;;;;;;;4.13;3.83;;;;;;;;;;4977281;28;20256;-86
2022/11/04 14:52:54;;;;;;;3.90;3.60;;;;;;;;;;4988248;28;20227;-86
2022/11/04 14:55:25;;;;;;;5.03;4.47;;;;;;;;;;4999116;28;20217;-85
2022/11/04 14:58:18;;;;;;;4.13;3.83;;;;;;;;;;4979226;28;20221;-86
2022/11/04 15:00:47;;;;;;;3.97;3.67;;;;;;;;;;4991800;28;20233;-87
2022/11/04 15:03:22;;;;;;;3.90;3.60;;;;;;;;;;4993070;28;20251;-86
2022/11/04 15:06:04;;;;;;;4.97;4.03;;;;;;;;;;4982177;28;20227;-86
2022/11/04 15:08:32;;;;;;;5.47;3.80;;;;;;;;;;4972520;28;20253;-84
2022/11/04 15:11:01;;;;;;;5.83;5.27;;;;;;;;;;4985053;28;20229;-85
2022/11/04 15:13:27;;;;;;;5.03;4.67;;;;;;;;;;5003089;28;20221;-86
2022/11/04 15:15:55;;;;;;;5.93;5.43;;;;;;;;;;4986881;28;20209;-82
2022/11/04 15:18:21;;;;;;;4.10;3.67;;;;;;;;;;4983571;28;20220;-85
2022/11/04 15:20:59;;;;;;;4.30;3.93;;;;;;;;;;4981634;28;20244;-86
2022/11/04 15:23:29;;;;;;;4.67;4.13;;;;;;;;;;4981183;28;20225;-85
2022/11/04 15:25:55;;;;;;;5.17;4.77;;;;;;;;;;4983745;28;20255;-86
2022/11/04 15:28:28;;;;;;;6.37;5.67;;;;;;;;;;4977421;28;20961;-85
2022/11/04 15:31:02;;;;;;;5.30;4.80;;;;;;;;;;4992047;28;20237;-87
2022/11/04 15:33:30;;;;;;;4.57;3.73;;;;;;;;;;5000114;28;20287;-89
2022/11/04 15:35:58;;;;;;;4.30;4.00;;;;;;;;;;5014303;28;20244;-85
2022/11/04 15:38:24;;;;;;;4.23;3.83;;;;;;;;;;4991566;28;20688;-86
2022/11/04 15:40:49;;;;;;;4.63;4.07;;;;;;;;;;4993438;28;20224;-86
2022/11/04 15:43:15;;;;;;;3.50;3.30;;;;;;;;;;5023917;28;20288;-87
2022/11/04 15:45:51;;;;;;;4.40;3.93;;;;;;;;;;4984308;28;20239;-87
2022/11/04 15:48:32;;;;;;;3.90;3.60;;;;;;;;;;4990576;28;20213;-86
2022/11/04 15:51:07;;;;;;;3.93;3.47;;;;;;;;;;5000251;28;20247;-87
2022/11/04 15:53:33;;;;;;;4.17;3.80;;;;;;;;;;5016779;28;20282;-87